createdAt,value
2024-01-24T00:01:21.935Z,100044.88
2024-01-24T00:03:49.209Z,100032.16
2024-01-24T00:06:16.378Z,100031.31
2024-01-24T00:08:43.386Z,100026.31
2024-01-24T00:11:10.502Z,100014.44
2024-01-24T00:13:38.470Z,100016.94
2024-01-24T00:16:05.572Z,100016.94
2024-01-24T00:18:33.204Z,100006.78
2024-01-24T00:21:00.424Z,100006.88
2024-01-24T00:23:27.431Z,100004.22
2024-01-24T00:25:54.545Z,100011.00
2024-01-24T00:28:22.685Z,100006.88
2024-01-24T00:30:49.844Z,99996.56
2024-01-24T00:33:17.108Z,99999.88
2024-01-24T00:35:44.112Z,99995.56
2024-01-24T00:38:11.342Z,99991.03
2024-01-24T00:40:38.388Z,99986.78
2024-01-24T00:43:06.626Z,99962.50
2024-01-24T00:45:33.608Z,99968.16
2024-01-24T00:48:00.763Z,99968.97
2024-01-24T00:50:28.103Z,99944.22
2024-01-24T00:52:56.909Z,99939.00
2024-01-24T00:55:26.120Z,99949.38
2024-01-24T00:57:53.682Z,99959.69
2024-01-24T01:00:20.961Z,99956.34
2024-01-24T01:02:48.095Z,99954.78
2024-01-24T01:05:15.212Z,99960.75
2024-01-24T01:07:42.271Z,99938.94
2024-01-24T01:10:12.552Z,99949.53
2024-01-24T01:12:39.699Z,99944.22
2024-01-24T01:15:07.390Z,99927.91
2024-01-24T01:17:34.446Z,99924.38
2024-01-24T01:20:01.593Z,99931.28
2024-01-24T01:22:29.089Z,99927.84
2024-01-24T01:24:57.637Z,99930.91
2024-01-24T01:27:25.809Z,99941.91
2024-01-24T01:29:52.893Z,99933.25
2024-01-24T01:32:19.922Z,99928.84
2024-01-24T01:34:47.012Z,99921.28
2024-01-24T01:37:14.070Z,99919.53
2024-01-24T01:39:41.221Z,99908.50
2024-01-24T01:42:08.525Z,99906.91
2024-01-24T01:44:44.382Z,99903.50
2024-01-24T01:47:12.188Z,99897.50
2024-01-24T01:49:39.732Z,99905.84
2024-01-24T01:52:08.125Z,99911.00
2024-01-24T01:54:35.296Z,99908.34
2024-01-24T01:57:03.360Z,99908.16
2024-01-24T01:59:30.465Z,99904.16
2024-01-24T02:02:01.867Z,99905.84
2024-01-24T02:04:32.734Z,99904.72
2024-01-24T02:07:00.392Z,99900.44
2024-01-24T02:09:28.635Z,99902.94
2024-01-24T02:11:56.126Z,99898.03
2024-01-24T02:14:23.348Z,99905.50
2024-01-24T02:16:50.654Z,99891.78
2024-01-24T02:19:17.775Z,99895.28
2024-01-24T02:21:44.963Z,99883.31
2024-01-24T02:24:13.714Z,99884.88
2024-01-24T02:26:40.903Z,99873.56
2024-01-24T02:29:07.973Z,99886.38
2024-01-24T02:31:34.918Z,99873.56
2024-01-24T02:34:02.116Z,99870.91
2024-01-24T02:36:29.142Z,99875.97
2024-01-24T02:38:58.558Z,99862.44
2024-01-24T02:41:25.944Z,99880.22
2024-01-24T02:43:53.006Z,99869.91
2024-01-24T02:46:20.412Z,99863.00
2024-01-24T02:48:47.454Z,99861.25
2024-01-24T02:51:25.316Z,99859.59
2024-01-24T02:53:53.441Z,99870.66
2024-01-24T02:56:20.838Z,99859.69
2024-01-24T02:58:48.124Z,99862.34
2024-01-24T03:01:17.396Z,99867.41
2024-01-24T03:03:45.308Z,99862.28
2024-01-24T03:06:12.708Z,99862.28
2024-01-24T03:08:56.209Z,99863.09
2024-01-24T03:11:26.842Z,99847.97
2024-01-24T03:13:53.852Z,99853.94
2024-01-24T03:16:20.978Z,99856.59
2024-01-24T03:18:49.440Z,99872.81
2024-01-24T03:21:18.894Z,99858.06
2024-01-24T03:23:46.424Z,99863.22
2024-01-24T03:26:16.685Z,99876.97
2024-01-24T03:28:44.280Z,99871.91
2024-01-24T03:31:11.726Z,99859.09
2024-01-24T03:33:39.032Z,99855.59
2024-01-24T03:36:06.410Z,99852.91
2024-01-24T03:38:34.393Z,99854.59
2024-01-24T03:41:01.974Z,99848.38
2024-01-24T03:43:29.310Z,99831.97
2024-01-24T03:45:56.465Z,99831.97
2024-01-24T03:48:23.776Z,99836.22
2024-01-24T03:50:50.929Z,99832.72
2024-01-24T03:53:17.978Z,99825.00
2024-01-24T03:55:45.009Z,99822.50
2024-01-24T03:58:12.084Z,99831.78
2024-01-24T04:00:39.274Z,99826.63
2024-01-24T04:03:06.459Z,99821.47
2024-01-24T04:05:33.670Z,99811.97
2024-01-24T04:08:00.915Z,99818.16
2024-01-24T04:10:28.266Z,99822.28
2024-01-24T04:12:55.427Z,99821.47
2024-01-24T04:15:23.391Z,99815.69
2024-01-24T04:17:50.671Z,99819.63
2024-01-24T04:20:19.747Z,99817.81
2024-01-24T04:22:46.750Z,99821.31
2024-01-24T04:25:13.847Z,99801.97
2024-01-24T04:27:41.172Z,99805.91
2024-01-24T04:30:08.955Z,99812.66
2024-01-24T04:32:36.162Z,99806.66
2024-01-24T04:35:03.408Z,99804.94
2024-01-24T04:37:31.652Z,99809.16
2024-01-24T04:39:58.693Z,99806.56
2024-01-24T04:42:26.146Z,99802.53
2024-01-24T04:44:53.230Z,99806.19
2024-01-24T04:47:20.268Z,99800.13
2024-01-24T04:49:47.671Z,99795.88
2024-01-24T04:52:15.693Z,99800.94
2024-01-24T04:54:43.442Z,99800.22
2024-01-24T04:57:10.726Z,99792.38
2024-01-24T04:59:45.969Z,99781.16
2024-01-24T05:02:21.083Z,99780.22
2024-01-24T05:04:49.146Z,99780.41
2024-01-24T05:07:16.769Z,99781.16
2024-01-24T05:09:44.039Z,99780.22
2024-01-24T05:12:11.491Z,99779.22
2024-01-24T05:14:38.563Z,99779.31
2024-01-24T05:17:05.650Z,99776.09
2024-01-24T05:19:33.292Z,99779.59
2024-01-24T05:22:00.495Z,99770.28
2024-01-24T05:24:27.682Z,99774.09
2024-01-24T05:26:54.672Z,99776.41
2024-01-24T05:29:21.813Z,99776.41
2024-01-24T05:31:49.243Z,99779.88
2024-01-24T05:34:16.461Z,99766.09
2024-01-24T05:36:43.683Z,99767.53
2024-01-24T05:39:11.321Z,99774.38
2024-01-24T05:41:38.349Z,99777.69
2024-01-24T05:44:05.475Z,99767.72
2024-01-24T05:46:32.440Z,99764.06
2024-01-24T05:49:02.047Z,99762.31
2024-01-24T05:51:29.851Z,99757.22
2024-01-24T05:53:56.971Z,99750.06
2024-01-24T05:56:24.035Z,99747.31
2024-01-24T05:58:51.479Z,99747.97
2024-01-24T06:01:18.778Z,99740.22
2024-01-24T06:03:45.997Z,99744.34
2024-01-24T06:06:13.204Z,99741.94
2024-01-24T06:08:41.188Z,99745.38
2024-01-24T06:11:08.556Z,99737.72
2024-01-24T06:13:35.959Z,99727.97
2024-01-24T06:16:03.207Z,99724.38
2024-01-24T06:18:30.458Z,99719.88
2024-01-24T06:20:57.493Z,99715.72
2024-01-24T06:23:24.721Z,99719.69
2024-01-24T06:25:51.708Z,99712.84
2024-01-24T06:28:18.787Z,99716.38
2024-01-24T06:30:47.176Z,99704.22
2024-01-24T06:33:14.626Z,99711.03
2024-01-24T06:35:42.127Z,99712.59
2024-01-24T06:38:09.161Z,99709.91
2024-01-24T06:40:36.179Z,99701.34
2024-01-24T06:43:03.509Z,99705.47
2024-01-24T06:45:30.600Z,99706.34
2024-01-24T06:47:57.926Z,99707.69
2024-01-24T06:50:25.527Z,99710.28
2024-01-24T06:52:52.602Z,99708.25
2024-01-24T06:55:19.655Z,99708.25
2024-01-24T06:57:46.922Z,99704.75
2024-01-24T07:00:14.297Z,99693.50
2024-01-24T07:02:41.343Z,99694.50
2024-01-24T07:05:08.524Z,99698.03
2024-01-24T07:07:35.682Z,99697.75
2024-01-24T07:10:03.691Z,99685.94
2024-01-24T07:12:31.437Z,99684.19
2024-01-24T07:14:58.546Z,99680.59
2024-01-24T07:17:25.560Z,99683.00
2024-01-24T07:19:53.034Z,99677.56
2024-01-24T07:22:20.063Z,99678.19
2024-01-24T07:24:47.507Z,99677.09
2024-01-24T07:27:14.726Z,99674.50
2024-01-24T07:29:41.711Z,99680.47
2024-01-24T07:32:08.739Z,99675.31
2024-01-24T07:34:39.970Z,99673.66
2024-01-24T07:37:07.462Z,99666.00
2024-01-24T07:39:35.131Z,99679.66
2024-01-24T07:42:02.281Z,99666.66
2024-01-24T07:44:29.265Z,99670.97
2024-01-24T07:46:57.357Z,99659.94
2024-01-24T07:49:24.533Z,99660.66
2024-01-24T07:51:53.374Z,99649.69
2024-01-24T07:54:21.890Z,99652.19
2024-01-24T07:56:49.287Z,99637.63
2024-01-24T07:59:17.884Z,99628.44
2024-01-24T08:01:49.583Z,99642.78
2024-01-24T08:04:17.333Z,99624.09
2024-01-24T08:06:49.337Z,99632.66
2024-01-24T08:09:19.445Z,99633.41
2024-01-24T08:11:46.928Z,99628.88
2024-01-24T08:14:14.122Z,99625.28
2024-01-24T08:16:41.502Z,99625.09
2024-01-24T08:19:08.546Z,99629.09
2024-01-24T08:21:35.997Z,99627.91
2024-01-24T08:24:03.223Z,99614.25
2024-01-24T08:26:30.209Z,99611.56
2024-01-24T08:29:00.424Z,99611.56
2024-01-24T08:31:27.759Z,99606.59
2024-01-24T08:33:54.966Z,99608.47
2024-01-24T08:36:22.091Z,99603.09
2024-01-24T08:38:50.210Z,99600.53
2024-01-24T08:41:17.224Z,99589.09
2024-01-24T08:43:44.164Z,99594.06
2024-01-24T08:46:11.196Z,99588.88
2024-01-24T08:48:38.411Z,99569.78
2024-01-24T08:51:05.649Z,99573.00
2024-01-24T08:53:32.626Z,99561.72
2024-01-24T08:55:59.569Z,99564.31
2024-01-24T08:58:26.793Z,99561.00
2024-01-24T09:00:54.040Z,99545.53
2024-01-24T09:03:21.505Z,99554.19
2024-01-24T09:05:52.220Z,99545.72
2024-01-24T09:08:19.571Z,99540.56
2024-01-24T09:10:46.703Z,99538.69
2024-01-24T09:13:14.517Z,99541.19
2024-01-24T09:15:41.751Z,99549.56
2024-01-24T09:18:09.490Z,99544.22
2024-01-24T09:20:37.131Z,99536.66
2024-01-24T09:23:04.187Z,99527.97
2024-01-24T09:25:32.029Z,99517.44
2024-01-24T09:27:59.640Z,99507.09
2024-01-24T09:30:26.831Z,99497.41
2024-01-24T09:32:53.946Z,99499.88
2024-01-24T09:35:21.737Z,99507.63
2024-01-24T09:37:48.905Z,99488.72
2024-01-24T09:40:16.659Z,99497.09
2024-01-24T09:42:45.676Z,99482.84
2024-01-24T09:45:17.950Z,99481.72
2024-01-24T09:47:48.469Z,99467.88
2024-01-24T09:50:15.842Z,99471.50
2024-01-24T09:52:44.888Z,99460.00
2024-01-24T09:55:17.695Z,99460.19
2024-01-24T09:57:46.912Z,99455.56
2024-01-24T10:00:15.991Z,99446.56
2024-01-24T10:02:48.106Z,99446.44
2024-01-24T10:05:18.318Z,99445.09
2024-01-24T10:07:45.378Z,99434.75
2024-01-24T10:10:17.036Z,99442.00
2024-01-24T10:12:45.757Z,99437.28
2024-01-24T10:15:13.411Z,99436.44
2024-01-24T10:17:44.602Z,99432.09
2024-01-24T10:20:15.793Z,99420.31
2024-01-24T10:22:47.065Z,99423.81
2024-01-24T10:25:14.562Z,99423.63
2024-01-24T10:27:45.356Z,99419.41
2024-01-24T10:30:14.037Z,99415.16
2024-01-24T10:32:47.185Z,99416.06
2024-01-24T10:35:14.600Z,99414.34
2024-01-24T10:37:43.422Z,99413.50
2024-01-24T10:40:16.341Z,99406.47
2024-01-24T10:42:44.755Z,99401.31
2024-01-24T10:45:12.207Z,99407.19
2024-01-24T10:47:41.862Z,99401.22
2024-01-24T10:50:11.644Z,99395.59
2024-01-24T10:52:40.415Z,99389.72
2024-01-24T10:55:12.663Z,99392.19
2024-01-24T10:57:43.838Z,99386.09
2024-01-24T11:00:12.933Z,99386.00
2024-01-24T11:02:45.125Z,99378.25
2024-01-24T11:05:20.943Z,99374.00
2024-01-24T11:08:20.578Z,99369.84
2024-01-24T11:10:49.989Z,99363.50
2024-01-24T11:13:19.285Z,99349.03
2024-01-24T11:15:47.845Z,99332.72
2024-01-24T11:18:22.732Z,99345.13
2024-01-24T11:21:00.032Z,99355.47
2024-01-24T11:23:40.479Z,99351.50
2024-01-24T11:26:12.243Z,99363.28
2024-01-24T11:28:39.730Z,99352.72
2024-01-24T11:31:08.616Z,99357.91
2024-01-24T11:33:36.526Z,99361.41
2024-01-24T11:36:07.212Z,99360.81
2024-01-24T11:38:35.494Z,99362.47
2024-01-24T11:41:25.243Z,99367.00
2024-01-24T11:43:52.325Z,99356.44
2024-01-24T11:46:22.917Z,99357.81
2024-01-24T11:48:51.007Z,99355.53
2024-01-24T11:51:19.333Z,99351.88
2024-01-24T11:53:46.610Z,99353.75
2024-01-24T11:56:17.754Z,99352.50
2024-01-24T11:58:45.030Z,99353.94
2024-01-24T12:01:13.140Z,99345.47
2024-01-24T12:03:48.669Z,99342.59
2024-01-24T12:06:16.416Z,99347.34
2024-01-24T12:08:49.862Z,99338.03
2024-01-24T12:11:18.677Z,99348.06
2024-01-24T12:13:46.112Z,99339.50
2024-01-24T12:16:13.650Z,99327.59
2024-01-24T12:18:42.283Z,99335.03
2024-01-24T12:21:10.628Z,99329.53
2024-01-24T12:23:38.305Z,99316.13
2024-01-24T12:26:05.662Z,99321.28
2024-01-24T12:28:32.861Z,99326.69
2024-01-24T12:31:04.614Z,99321.72
2024-01-24T12:33:34.857Z,99314.91
2024-01-24T12:36:07.700Z,99319.84
2024-01-24T12:38:36.336Z,99307.84
2024-01-24T12:41:03.536Z,99312.00
2024-01-24T12:43:31.318Z,99318.81
2024-01-24T12:46:05.625Z,99314.47
2024-01-24T12:48:33.326Z,99312.91
2024-01-24T12:51:00.509Z,99319.47
2024-01-24T12:53:27.695Z,99308.31
2024-01-24T12:55:54.850Z,99296.97
2024-01-24T12:58:22.049Z,99305.72
2024-01-24T13:00:49.909Z,99310.44
2024-01-24T13:03:20.620Z,99304.34
2024-01-24T13:05:51.469Z,99307.84
2024-01-24T13:08:19.434Z,99307.84
2024-01-24T13:10:47.626Z,99303.63
2024-01-24T13:13:15.617Z,99299.88
2024-01-24T13:15:43.627Z,99295.44
2024-01-24T13:18:11.536Z,99297.72
2024-01-24T13:20:38.726Z,99297.81
2024-01-24T13:23:05.721Z,99290.06
2024-01-24T13:25:32.841Z,99287.59
2024-01-24T13:28:00.938Z,99289.84
2024-01-24T13:30:28.799Z,99285.59
2024-01-24T13:32:56.238Z,99282.19
2024-01-24T13:35:23.523Z,99281.13
2024-01-24T13:37:50.818Z,99279.72
2024-01-24T13:40:19.003Z,99277.03
2024-01-24T13:42:46.792Z,99276.19
2024-01-24T13:45:14.615Z,99283.25
2024-01-24T13:47:42.257Z,99283.03
2024-01-24T13:50:10.978Z,99274.34
2024-01-24T13:52:39.230Z,99276.94
2024-01-24T13:55:09.742Z,99271.53
2024-01-24T13:57:39.748Z,99270.59
2024-01-24T14:00:12.823Z,99268.94
2024-01-24T14:02:40.972Z,99262.81
2024-01-24T14:05:11.144Z,99253.22
2024-01-24T14:07:40.195Z,99256.63
2024-01-24T14:10:08.463Z,99245.69
2024-01-24T14:12:35.586Z,99237.31
2024-01-24T14:15:14.813Z,99241.44
2024-01-24T14:17:48.038Z,99232.78
2024-01-24T14:20:16.309Z,99237.94
2024-01-24T14:22:43.399Z,99231.81
2024-01-24T14:25:11.651Z,99226.06
2024-01-24T14:27:38.969Z,99214.50
2024-01-24T14:30:07.173Z,99231.56
2024-01-24T14:32:34.493Z,99229.09
2024-01-24T14:35:01.707Z,99222.16
2024-01-24T14:37:32.057Z,99219.47
2024-01-24T14:40:00.591Z,99196.88
2024-01-24T14:42:27.799Z,99209.97
2024-01-24T14:44:55.446Z,99216.53
2024-01-24T14:47:22.650Z,99211.38
2024-01-24T14:49:49.808Z,99212.09
2024-01-24T14:52:17.018Z,99205.63
2024-01-24T14:54:44.190Z,99207.06
2024-01-24T14:57:11.570Z,99210.69
2024-01-24T14:59:38.692Z,99202.59
2024-01-24T15:02:05.798Z,99197.53
2024-01-24T15:04:32.884Z,99199.06
2024-01-24T15:07:00.528Z,99205.06
2024-01-24T15:09:27.697Z,99200.00
2024-01-24T15:11:55.006Z,99196.25
2024-01-24T15:14:22.019Z,99197.56
2024-01-24T15:16:49.021Z,99191.44
2024-01-24T15:19:16.396Z,99189.69
2024-01-24T15:21:43.454Z,99194.25
2024-01-24T15:24:10.873Z,99189.09
2024-01-24T15:26:37.951Z,99186.03
2024-01-24T15:29:05.284Z,99185.91
2024-01-24T15:31:32.340Z,99188.88
2024-01-24T15:33:59.915Z,99191.22
2024-01-24T15:36:27.122Z,99179.34
2024-01-24T15:38:56.148Z,99177.69
2024-01-24T15:41:23.370Z,99164.19
2024-01-24T15:43:51.009Z,99158.53
2024-01-24T15:46:18.464Z,99163.72
2024-01-24T15:48:46.010Z,99157.59
2024-01-24T15:51:14.145Z,99159.94
2024-01-24T15:53:41.395Z,99164.06
2024-01-24T15:56:08.884Z,99146.78
2024-01-24T15:58:38.257Z,99156.91
2024-01-24T16:01:07.323Z,99157.63
2024-01-24T16:03:35.652Z,99154.94
2024-01-24T16:06:03.466Z,99150.56
2024-01-24T16:08:31.496Z,99147.75
2024-01-24T16:11:00.623Z,99141.88
2024-01-24T16:13:28.789Z,99131.78
2024-01-24T16:15:56.422Z,99129.91
2024-01-24T16:18:24.506Z,99138.34
2024-01-24T16:20:52.317Z,99129.91
2024-01-24T16:23:20.177Z,99131.31
2024-01-24T16:25:49.970Z,99134.59
2024-01-24T16:28:17.997Z,99132.00
2024-01-24T16:30:47.004Z,99137.88
2024-01-24T16:33:15.071Z,99131.91
2024-01-24T16:35:42.862Z,99129.31
2024-01-24T16:38:12.887Z,99136.72
2024-01-24T16:40:40.485Z,99132.94
2024-01-24T16:43:11.396Z,99135.53
2024-01-24T16:45:41.596Z,99141.91
2024-01-24T16:48:11.634Z,99137.41
2024-01-24T16:50:42.667Z,99136.25
2024-01-24T16:53:11.274Z,99131.78
2024-01-24T16:55:39.466Z,99135.19
2024-01-24T16:58:07.360Z,99129.09
2024-01-24T17:00:35.618Z,99125.81
2024-01-24T17:03:03.354Z,99122.03
2024-01-24T17:05:30.780Z,99114.88
2024-01-24T17:07:58.449Z,99108.16
2024-01-24T17:10:25.518Z,99105.00
2024-01-24T17:12:52.647Z,99105.69
2024-01-24T17:15:19.862Z,99099.22
2024-01-24T17:17:47.261Z,99092.31
2024-01-24T17:20:14.375Z,99098.88
2024-01-24T17:22:41.589Z,99093.69
2024-01-24T17:25:10.922Z,99090.41
2024-01-24T17:27:38.167Z,99084.19
2024-01-24T17:30:06.189Z,99079.03
2024-01-24T17:32:33.393Z,99076.09
2024-01-24T17:35:00.661Z,99079.72
2024-01-24T17:37:27.882Z,99077.56
2024-01-24T17:39:55.327Z,99086.28
2024-01-24T17:42:22.969Z,99072.06
2024-01-24T17:44:50.132Z,99072.06
2024-01-24T17:47:18.716Z,99065.72
2024-01-24T17:49:46.491Z,99069.13
2024-01-24T17:52:14.055Z,99069.94
2024-01-24T17:54:41.505Z,99061.72
2024-01-24T17:57:08.784Z,99065.25
2024-01-24T17:59:36.074Z,99059.94
2024-01-24T18:02:03.486Z,99044.78
2024-01-24T18:04:30.801Z,99059.94
2024-01-24T18:06:58.352Z,99056.28
2024-01-24T18:09:25.752Z,99052.31
2024-01-24T18:11:53.050Z,99052.56
2024-01-24T18:14:20.615Z,99045.84
2024-01-24T18:16:47.871Z,99033.72
2024-01-24T18:19:15.783Z,99038.41
2024-01-24T18:21:43.645Z,99028.56
2024-01-24T18:24:10.732Z,99032.41
2024-01-24T18:26:37.836Z,99033.09
2024-01-24T18:29:05.186Z,99028.03
2024-01-24T18:31:32.319Z,99019.59
2024-01-24T18:33:59.404Z,99017.00
2024-01-24T18:36:26.646Z,99019.72
2024-01-24T18:38:53.829Z,99015.84
2024-01-24T18:41:23.206Z,99007.38
2024-01-24T18:43:53.036Z,99000.81
2024-01-24T18:46:21.316Z,99007.63
2024-01-24T18:48:49.066Z,99000.47
2024-01-24T18:51:17.557Z,98998.00
2024-01-24T18:53:45.387Z,99000.81
2024-01-24T18:56:12.898Z,99007.63
2024-01-24T18:58:40.402Z,99006.00
2024-01-24T19:01:08.343Z,98991.28
2024-01-24T19:03:35.862Z,98996.34
2024-01-24T19:06:03.258Z,98995.91
2024-01-24T19:08:33.962Z,98983.31
2024-01-24T19:11:03.547Z,98989.56
2024-01-24T19:13:31.731Z,98985.69
2024-01-24T19:15:59.426Z,98983.94
2024-01-24T19:18:27.994Z,98973.72
2024-01-24T19:20:55.403Z,98979.44
2024-01-24T19:23:23.771Z,98966.53
2024-01-24T19:25:50.925Z,98976.88
2024-01-24T19:28:18.329Z,98972.19
2024-01-24T19:30:45.410Z,98963.03
2024-01-24T19:33:12.775Z,98960.44
2024-01-24T19:35:41.052Z,98958.56
2024-01-24T19:38:08.408Z,98964.41
2024-01-24T19:40:35.421Z,98950.31
2024-01-24T19:43:02.949Z,98950.31
2024-01-24T19:45:30.216Z,98948.41
2024-01-24T19:47:57.597Z,98936.44
2024-01-24T19:50:24.826Z,98937.84
2024-01-24T19:52:52.490Z,98945.59
2024-01-24T19:55:21.481Z,98939.72
2024-01-24T19:57:48.511Z,98939.97
2024-01-24T20:00:15.986Z,98939.72
2024-01-24T20:02:43.038Z,98927.16
2024-01-24T20:05:10.273Z,98930.31
2024-01-24T20:07:37.400Z,98926.94
2024-01-24T20:10:04.698Z,98913.19
2024-01-24T20:12:31.776Z,98922.72
2024-01-24T20:14:58.896Z,98928.22
2024-01-24T20:17:27.186Z,98930.69
2024-01-24T20:19:54.794Z,98926.59
2024-01-24T20:22:21.789Z,98925.75
2024-01-24T20:24:48.927Z,98920.81
2024-01-24T20:27:16.025Z,98924.13
2024-01-24T20:29:44.647Z,98923.06
2024-01-24T20:32:12.904Z,98912.34
2024-01-24T20:34:40.002Z,98911.16
2024-01-24T20:37:08.578Z,98915.00
2024-01-24T20:39:38.440Z,98900.69
2024-01-24T20:42:11.101Z,98905.38
2024-01-24T20:44:41.275Z,98903.72
2024-01-24T20:47:08.566Z,98900.09
2024-01-24T20:49:35.844Z,98904.16
2024-01-24T20:52:03.037Z,98894.78
2024-01-24T20:54:30.099Z,98896.66
2024-01-24T20:56:57.075Z,98887.84
2024-01-24T20:59:25.820Z,98891.84
2024-01-24T21:01:55.209Z,98889.00
2024-01-24T21:04:22.835Z,98887.66
2024-01-24T21:06:50.139Z,98889.31
2024-01-24T21:09:18.297Z,98884.63
2024-01-24T21:11:45.280Z,98878.06
2024-01-24T21:14:12.595Z,98875.97
2024-01-24T21:16:39.620Z,98873.72
2024-01-24T21:19:06.762Z,98879.47
2024-01-24T21:21:33.866Z,98875.41
2024-01-24T21:24:00.948Z,98879.28
2024-01-24T21:26:28.012Z,98856.25
2024-01-24T21:28:55.024Z,98867.59
2024-01-24T21:31:22.432Z,98861.47
2024-01-24T21:33:49.621Z,98857.50
2024-01-24T21:36:16.663Z,98861.03
2024-01-24T21:38:43.683Z,98860.91
2024-01-24T21:41:10.720Z,98858.88
2024-01-24T21:43:37.716Z,98853.81
2024-01-24T21:46:05.093Z,98860.66
2024-01-24T21:48:32.156Z,98863.00
2024-01-24T21:50:59.136Z,98853.44
2024-01-24T21:53:26.128Z,98851.53
2024-01-24T21:55:53.103Z,98851.03
2024-01-24T21:58:20.172Z,98848.03
2024-01-24T22:00:47.325Z,98851.53
2024-01-24T22:03:14.770Z,98842.41
2024-01-24T22:05:41.962Z,98841.59
2024-01-24T22:08:09.100Z,98835.22
2024-01-24T22:10:36.170Z,98834.41
2024-01-24T22:13:03.274Z,98831.56
2024-01-24T22:15:32.130Z,98826.22
2024-01-24T22:17:59.198Z,98821.03
2024-01-24T22:20:26.398Z,98826.63
2024-01-24T22:22:53.527Z,98821.03
2024-01-24T22:25:20.611Z,98806.53
2024-01-24T22:27:47.881Z,98821.03
2024-01-24T22:30:15.283Z,98796.19
2024-01-24T22:32:42.307Z,98813.16
2024-01-24T22:35:09.794Z,98810.28
2024-01-24T22:37:36.828Z,98806.88
2024-01-24T22:40:06.269Z,98810.44
2024-01-24T22:42:33.525Z,98800.88
2024-01-24T22:45:00.678Z,98799.50
2024-01-24T22:47:27.779Z,98797.03
2024-01-24T22:49:55.005Z,98791.75
2024-01-24T22:52:22.873Z,98790.53
2024-01-24T22:54:51.726Z,98785.91
2024-01-24T22:57:19.662Z,98778.16
2024-01-24T22:59:46.750Z,98779.97
2024-01-24T23:02:13.863Z,98783.25
2024-01-24T23:04:41.658Z,98778.06
2024-01-24T23:07:08.910Z,98776.56
2024-01-24T23:09:36.147Z,98770.94
2024-01-24T23:12:03.238Z,98775.56
2024-01-24T23:14:30.203Z,98777.22
2024-01-24T23:16:57.167Z,98781.16
2024-01-24T23:19:24.357Z,98773.78
2024-01-24T23:21:51.443Z,98766.88
2024-01-24T23:24:18.813Z,98776.97
2024-01-24T23:26:45.787Z,98768.22
2024-01-24T23:29:12.778Z,98773.16
2024-01-24T23:31:39.806Z,98767.16
2024-01-24T23:34:07.005Z,98769.88
2024-01-24T23:36:34.124Z,98776.44
2024-01-24T23:39:01.229Z,98772.88
2024-01-24T23:41:28.135Z,98765.50
2024-01-24T23:43:55.323Z,98763.00
2024-01-24T23:46:22.681Z,98762.97
2024-01-24T23:48:50.095Z,98759.38
2024-01-24T23:51:18.061Z,98760.19
2024-01-24T23:53:45.132Z,98758.41
2024-01-24T23:56:13.561Z,98751.16
2024-01-24T23:58:40.605Z,98752.28
